PWSweather.com
Personal Weather Stations
Station Observations
WAREHAM1
West Wareham, MA 02576

West Wareham, MA 02576

Lat: 41.7961059, Lon: -70.775612

Elevation: 88

Station Type: Davis Vantage Vue

http://www.gateway2capecod.com

High Low Average
Temperature 45.5°F7.5°C 40.3°F4.6°C 42.7°F5.9°C
Dew Point 43.3°F6.3°C 34.2°F1.2°C 38.0°F3.3°C
Winds 2.0 mph 3.2 kmh Calm Calm Calm SWCalm SW
Wind Gusts 11.0 mph17.7 kmh -- 3.0 mph4.8 kmh
Humidity 97% 70% 84%
Pressure 30.34 in1027.4 mb 30.26 in1024.7 mb -
Precipitation 0.06 in1.5 mm - -
Hour Temp Dew Point Humidity Winds Wind Gusts Pressure Precip Precip Rate Daily Precip Total
12:07 AM 41.2°F5.1°C 40.5°F4.7°C 97% Calm Calm 2.0 mph3.2 kmh 30.27 in1025.1 mb 0.00 in0.0 mm 0.00 in0.0 mm 0.00 in0.0 mm
12:17 AM 41.4°F5.2°C 40.6°F4.8°C 97% Calm Calm 2.0 mph3.2 kmh 30.27 in1025.1 mb 0.00 in0.0 mm 0.00 in0.0 mm 0.00 in0.0 mm
12:27 AM 41.2°F5.1°C 40.5°F4.7°C 97% Calm Calm 2.0 mph3.2 kmh 30.26 in1024.7 mb 0.00 in0.0 mm 0.00 in0.0 mm 0.00 in0.0 mm
12:37 AM 41.2°F5.1°C 40.5°F4.7°C 97% Calm Calm 0.9 mph1.4 kmh 30.26 in1024.7 mb 0.00 in0.0 mm 0.00 in0.0 mm 0.00 in0.0 mm
12:47 AM 41.2°F5.1°C 40.5°F4.7°C 97% Calm Calm 0.9 mph1.4 kmh 30.26 in1024.7 mb 0.00 in0.0 mm 0.00 in0.0 mm 0.00 in0.0 mm
12:57 AM 41.4°F5.2°C 40.6°F4.8°C 97% Calm Calm 0.9 mph1.4 kmh 30.26 in1024.7 mb 0.00 in0.0 mm 0.00 in0.0 mm 0.00 in0.0 mm
01:07 AM 41.5°F5.3°C 40.8°F4.9°C 97% Calm Calm 0.9 mph1.4 kmh 30.26 in1024.7 mb 0.00 in0.0 mm 0.00 in0.0 mm 0.00 in0.0 mm
01:17 AM 41.5°F5.3°C 40.8°F4.9°C 97% Calm Calm 2.9 mph4.7 kmh 30.26 in1024.7 mb 0.00 in0.0 mm 0.00 in0.0 mm 0.00 in0.0 mm
01:27 AM 41.7°F5.4°C 41.0°F5.0°C 97% Calm Calm 4.0 mph6.4 kmh 30.26 in1024.7 mb 0.00 in0.0 mm 0.00 in0.0 mm 0.00 in0.0 mm
01:37 AM 42.1°F5.6°C 41.4°F5.2°C 97% Calm Calm 2.0 mph3.2 kmh 30.26 in1024.7 mb 0.00 in0.0 mm 0.00 in0.0 mm 0.00 in0.0 mm
01:47 AM 42.3°F5.7°C 41.5°F5.3°C 97% Calm Calm 0.9 mph1.4 kmh 30.26 in1024.7 mb 0.00 in0.0 mm 0.00 in0.0 mm 0.00 in0.0 mm
01:57 AM 42.4°F5.8°C 41.7°F5.4°C 97% Calm Calm 0.9 mph1.4 kmh 30.27 in1025.1 mb 0.01 in0.3 mm 0.06 in1.5 mm 0.01 in0.3 mm
02:07 AM 42.6°F5.9°C 41.9°F5.5°C 97% Calm Calm 2.0 mph3.2 kmh 30.27 in1025.1 mb 0.01 in0.3 mm 0.00 in0.0 mm 0.01 in0.3 mm
02:17 AM 43.2°F6.2°C 42.4°F5.8°C 97% Calm Calm 2.9 mph4.7 kmh 30.26 in1024.7 mb 0.02 in0.5 mm 0.06 in1.5 mm 0.02 in0.5 mm
02:27 AM 43.5°F6.4°C 42.8°F6.0°C 97% Calm Calm 2.9 mph4.7 kmh 30.26 in1024.7 mb 0.03 in0.8 mm 0.06 in1.5 mm 0.03 in0.8 mm
02:37 AM 43.9°F6.6°C 43.2°F6.2°C 97% Calm Calm 4.0 mph6.4 kmh 30.26 in1024.7 mb 0.03 in0.8 mm 0.00 in0.0 mm 0.03 in0.8 mm
02:47 AM 44.1°F6.7°C 43.3°F6.3°C 97% Calm Calm 2.0 mph3.2 kmh 30.26 in1024.7 mb 0.03 in0.8 mm 0.00 in0.0 mm 0.03 in0.8 mm
02:57 AM 44.1°F6.7°C 43.3°F6.3°C 97% Calm Calm 2.0 mph3.2 kmh 30.26 in1024.7 mb 0.02 in0.5 mm 0.00 in0.0 mm 0.03 in0.8 mm
03:07 AM 44.1°F6.7°C 43.3°F6.3°C 97% Calm Calm 1.0 mph1.6 kmh 30.27 in1025.1 mb 0.02 in0.5 mm 0.00 in0.0 mm 0.03 in0.8 mm
03:17 AM 44.1°F6.7°C 43.3°F6.3°C 97% Calm Calm 0.9 mph1.4 kmh 30.27 in1025.1 mb 0.01 in0.3 mm 0.00 in0.0 mm 0.03 in0.8 mm
03:27 AM 43.9°F6.6°C 43.2°F6.2°C 97% Calm Calm 0.9 mph1.4 kmh 30.27 in1025.1 mb 0.01 in0.3 mm 0.00 in0.0 mm 0.04 in1.0 mm
03:37 AM 43.9°F6.6°C 43.2°F6.2°C 97% Calm Calm -- 30.27 in1025.1 mb 0.01 in0.3 mm 0.00 in0.0 mm 0.04 in1.0 mm
03:47 AM 43.9°F6.6°C 43.2°F6.2°C 97% Calm Calm -- 30.27 in1025.1 mb 0.01 in0.3 mm 0.00 in0.0 mm 0.04 in1.0 mm
03:57 AM 43.9°F6.6°C 43.2°F6.2°C 97% Calm Calm -- 30.27 in1025.1 mb 0.01 in0.3 mm 0.00 in0.0 mm 0.04 in1.0 mm
04:07 AM 43.9°F6.6°C 43.2°F6.2°C 97% Calm Calm -- 30.27 in1025.1 mb 0.01 in0.3 mm 0.00 in0.0 mm 0.04 in1.0 mm
04:17 AM 43.7°F6.5°C 43.0°F6.1°C 97% Calm Calm -- 30.27 in1025.1 mb 0.01 in0.3 mm 0.00 in0.0 mm 0.04 in1.0 mm
04:27 AM 43.5°F6.4°C 42.8°F6.0°C 97% Calm Calm -- 30.27 in1025.1 mb 0.00 in0.0 mm 0.00 in0.0 mm 0.04 in1.0 mm
04:37 AM 43.5°F6.4°C 42.8°F6.0°C 97% Calm Calm -- 30.28 in1025.4 mb 0.00 in0.0 mm 0.00 in0.0 mm 0.04 in1.0 mm
04:47 AM 43.5°F6.4°C 42.8°F6.0°C 97% Calm Calm -- 30.28 in1025.4 mb 0.00 in0.0 mm 0.00 in0.0 mm 0.04 in1.0 mm
04:57 AM 43.2°F6.2°C 42.4°F5.8°C 97% Calm Calm 2.0 mph3.2 kmh 30.28 in1025.4 mb 0.00 in0.0 mm 0.00 in0.0 mm 0.04 in1.0 mm
05:07 AM 42.4°F5.8°C 41.7°F5.4°C 97% Calm Calm 0.9 mph1.4 kmh 30.28 in1025.4 mb 0.00 in0.0 mm 0.00 in0.0 mm 0.04 in1.0 mm
05:17 AM 42.4°F5.8°C 41.7°F5.4°C 97% Calm Calm 0.9 mph1.4 kmh 30.28 in1025.4 mb 0.01 in0.3 mm 0.06 in1.5 mm 0.05 in1.3 mm
05:27 AM 42.3°F5.7°C 41.5°F5.3°C 97% Calm Calm 2.0 mph3.2 kmh 30.28 in1025.4 mb 0.01 in0.3 mm 0.00 in0.0 mm 0.05 in1.3 mm
05:37 AM 42.3°F5.7°C 41.5°F5.3°C 97% Calm Calm -- 30.28 in1025.4 mb 0.01 in0.3 mm 0.00 in0.0 mm 0.05 in1.3 mm
05:47 AM 42.3°F5.7°C 41.5°F5.3°C 97% Calm Calm -- 30.28 in1025.4 mb 0.02 in0.5 mm 0.06 in1.5 mm 0.06 in1.5 mm
05:57 AM 42.3°F5.7°C 41.5°F5.3°C 97% Calm Calm -- 30.29 in1025.7 mb 0.02 in0.5 mm 0.00 in0.0 mm 0.06 in1.5 mm
06:07 AM 42.3°F5.7°C 41.5°F5.3°C 97% Calm Calm 2.9 mph4.7 kmh 30.29 in1025.7 mb 0.02 in0.5 mm 0.00 in0.0 mm 0.06 in1.5 mm
06:17 AM 41.9°F5.5°C 41.2°F5.1°C 97% Calm Calm 4.0 mph6.4 kmh 30.30 in1026.1 mb 0.01 in0.3 mm 0.00 in0.0 mm 0.06 in1.5 mm
06:27 AM 41.5°F5.3°C 40.8°F4.9°C 97% Calm Calm 3.0 mph4.8 kmh 30.30 in1026.1 mb 0.01 in0.3 mm 0.00 in0.0 mm 0.06 in1.5 mm
06:37 AM 41.4°F5.2°C 40.3°F4.6°C 96% Calm Calm 0.9 mph1.4 kmh 30.31 in1026.4 mb 0.01 in0.3 mm 0.00 in0.0 mm 0.06 in1.5 mm
06:47 AM 41.2°F5.1°C 40.1°F4.5°C 96% Calm Calm 3.0 mph4.8 kmh 30.31 in1026.4 mb 0.00 in0.0 mm 0.00 in0.0 mm 0.06 in1.5 mm
06:57 AM 40.8°F4.9°C 39.7°F4.3°C 96% Calm Calm 2.9 mph4.7 kmh 30.31 in1026.4 mb 0.00 in0.0 mm 0.00 in0.0 mm 0.06 in1.5 mm
07:07 AM 40.8°F4.9°C 39.6°F4.2°C 95% Calm Calm 2.0 mph3.2 kmh 30.32 in1026.8 mb 0.00 in0.0 mm 0.00 in0.0 mm 0.06 in1.5 mm
07:17 AM 40.8°F4.9°C 39.6°F4.2°C 95% Calm Calm -- 30.32 in1026.8 mb 0.00 in0.0 mm 0.00 in0.0 mm 0.06 in1.5 mm
07:27 AM 40.8°F4.9°C 39.6°F4.2°C 95% Calm Calm -- 30.32 in1026.8 mb 0.00 in0.0 mm 0.00 in0.0 mm 0.06 in1.5 mm
07:37 AM 41.2°F5.1°C 39.6°F4.2°C 94% Calm Calm -- 30.32 in1026.8 mb 0.00 in0.0 mm 0.00 in0.0 mm 0.06 in1.5 mm
07:47 AM 41.4°F5.2°C 39.7°F4.3°C 94% Calm Calm -- 30.33 in1027.1 mb 0.00 in0.0 mm 0.00 in0.0 mm 0.06 in1.5 mm
07:57 AM 41.5°F5.3°C 39.7°F4.3°C 93% Calm Calm 1.0 mph1.6 kmh 30.34 in1027.4 mb 0.00 in0.0 mm 0.00 in0.0 mm 0.06 in1.5 mm
08:07 AM 41.7°F5.4°C 39.6°F4.2°C 92% Calm Calm 1.0 mph1.6 kmh 30.34 in1027.4 mb 0.00 in0.0 mm 0.00 in0.0 mm 0.06 in1.5 mm
08:17 AM 42.1°F5.6°C 39.9°F4.4°C 92% Calm Calm -- 30.33 in1027.1 mb 0.00 in0.0 mm 0.00 in0.0 mm 0.06 in1.5 mm
08:27 AM 42.3°F5.7°C 39.7°F4.3°C 91% Calm Calm -- 30.33 in1027.1 mb 0.00 in0.0 mm 0.00 in0.0 mm 0.06 in1.5 mm
08:37 AM 42.6°F5.9°C 39.6°F4.2°C 89% Calm Calm -- 30.33 in1027.1 mb 0.00 in0.0 mm 0.00 in0.0 mm 0.06 in1.5 mm
08:47 AM 42.8°F6.0°C 40.1°F4.5°C 90% Calm Calm -- 30.33 in1027.1 mb 0.00 in0.0 mm 0.00 in0.0 mm 0.06 in1.5 mm
08:57 AM 42.6°F5.9°C 40.1°F4.5°C 91% Calm Calm -- 30.33 in1027.1 mb 0.00 in0.0 mm 0.00 in0.0 mm 0.06 in1.5 mm
09:07 AM 42.8°F6.0°C 40.6°F4.8°C 92% Calm Calm 2.0 mph3.2 kmh 30.33 in1027.1 mb 0.00 in0.0 mm 0.00 in0.0 mm 0.06 in1.5 mm
09:17 AM 42.6°F5.9°C 40.1°F4.5°C 91% Calm Calm 0.9 mph1.4 kmh 30.33 in1027.1 mb 0.00 in0.0 mm 0.00 in0.0 mm 0.06 in1.5 mm
09:27 AM 43.2°F6.2°C 40.6°F4.8°C 91% Calm Calm 2.0 mph3.2 kmh 30.33 in1027.1 mb 0.00 in0.0 mm 0.00 in0.0 mm 0.06 in1.5 mm
09:37 AM 43.3°F6.3°C 39.2°F4.0°C 85% 0.9 mph ENE1.4 kmh ENE 4.0 mph6.4 kmh 30.33 in1027.1 mb 0.00 in0.0 mm 0.00 in0.0 mm 0.06 in1.5 mm
09:47 AM 43.9°F6.6°C 38.7°F3.7°C 82% 0.9 mph N1.4 kmh N 4.0 mph6.4 kmh 30.33 in1027.1 mb 0.00 in0.0 mm 0.00 in0.0 mm 0.06 in1.5 mm
09:57 AM 44.4°F6.9°C 39.0°F3.9°C 81% Calm Calm 2.9 mph4.7 kmh 30.33 in1027.1 mb 0.00 in0.0 mm 0.00 in0.0 mm 0.06 in1.5 mm
10:07 AM 45.0°F7.2°C 38.8°F3.8°C 79% 0.9 mph E1.4 kmh E 6.0 mph9.7 kmh 30.33 in1027.1 mb 0.00 in0.0 mm 0.00 in0.0 mm 0.06 in1.5 mm
10:17 AM 45.1°F7.3°C 37.9°F3.3°C 76% 2.0 mph NW3.2 kmh NW 8.1 mph13.0 kmh 30.33 in1027.1 mb 0.00 in0.0 mm 0.00 in0.0 mm 0.06 in1.5 mm
10:27 AM 45.1°F7.3°C 37.4°F3.0°C 74% 2.0 mph N3.2 kmh N 10.1 mph16.3 kmh 30.33 in1027.1 mb 0.00 in0.0 mm 0.00 in0.0 mm 0.06 in1.5 mm
10:37 AM 45.1°F7.3°C 37.0°F2.8°C 73% 2.0 mph NW3.2 kmh NW 6.9 mph11.1 kmh 30.33 in1027.1 mb 0.00 in0.0 mm 0.00 in0.0 mm 0.06 in1.5 mm
10:47 AM 45.1°F7.3°C 36.7°F2.6°C 72% 2.0 mph E3.2 kmh E 8.1 mph13.0 kmh 30.33 in1027.1 mb 0.00 in0.0 mm 0.00 in0.0 mm 0.06 in1.5 mm
10:57 AM 45.0°F7.2°C 36.9°F2.7°C 73% 2.0 mph N3.2 kmh N 8.9 mph14.3 kmh 30.33 in1027.1 mb 0.00 in0.0 mm 0.00 in0.0 mm 0.06 in1.5 mm
11:07 AM 45.1°F7.3°C 36.7°F2.6°C 72% 0.9 mph NW1.4 kmh NW 4.9 mph7.9 kmh 30.32 in1026.8 mb 0.00 in0.0 mm 0.00 in0.0 mm 0.06 in1.5 mm
11:17 AM 45.3°F7.4°C 37.2°F2.9°C 73% 0.9 mph NE1.4 kmh NE 6.0 mph9.7 kmh 30.32 in1026.8 mb 0.00 in0.0 mm 0.00 in0.0 mm 0.06 in1.5 mm
11:27 AM 45.0°F7.2°C 36.1°F2.3°C 71% 0.9 mph E1.4 kmh E 7.0 mph11.3 kmh 30.31 in1026.4 mb 0.00 in0.0 mm 0.00 in0.0 mm 0.06 in1.5 mm
11:37 AM 45.0°F7.2°C 36.1°F2.3°C 71% 0.9 mph E1.4 kmh E 4.9 mph7.9 kmh 30.31 in1026.4 mb 0.00 in0.0 mm 0.00 in0.0 mm 0.06 in1.5 mm
11:47 AM 45.1°F7.3°C 36.0°F2.2°C 70% 0.9 mph NE1.4 kmh NE 4.9 mph7.9 kmh 30.30 in1026.1 mb 0.00 in0.0 mm 0.00 in0.0 mm 0.06 in1.5 mm
11:57 AM 45.1°F7.3°C 36.7°F2.6°C 72% 2.0 mph E3.2 kmh E 7.0 mph11.3 kmh 30.31 in1026.4 mb 0.00 in0.0 mm 0.00 in0.0 mm 0.06 in1.5 mm
12:07 PM 45.1°F7.3°C 36.7°F2.6°C 72% 2.0 mph NE3.2 kmh NE 8.1 mph13.0 kmh 30.30 in1026.1 mb 0.00 in0.0 mm 0.00 in0.0 mm 0.06 in1.5 mm
12:17 PM 45.3°F7.4°C 36.9°F2.7°C 72% 2.0 mph S3.2 kmh S 6.9 mph11.1 kmh 30.30 in1026.1 mb 0.00 in0.0 mm 0.00 in0.0 mm 0.06 in1.5 mm
12:27 PM 45.1°F7.3°C 36.7°F2.6°C 72% 2.0 mph E3.2 kmh E 7.0 mph11.3 kmh 30.30 in1026.1 mb 0.00 in0.0 mm 0.00 in0.0 mm 0.06 in1.5 mm
12:37 PM 45.3°F7.4°C 37.2°F2.9°C 73% 0.9 mph ENE1.4 kmh ENE 6.9 mph11.1 kmh 30.30 in1026.1 mb 0.00 in0.0 mm 0.00 in0.0 mm 0.06 in1.5 mm
12:47 PM 45.5°F7.5°C 37.4°F3.0°C 73% 0.9 mph NE1.4 kmh NE 8.1 mph13.0 kmh 30.30 in1026.1 mb 0.00 in0.0 mm 0.00 in0.0 mm 0.06 in1.5 mm
12:57 PM 45.1°F7.3°C 36.7°F2.6°C 72% 2.0 mph E3.2 kmh E 11.0 mph17.7 kmh 30.31 in1026.4 mb 0.00 in0.0 mm 0.00 in0.0 mm 0.06 in1.5 mm
01:07 PM 44.8°F7.1°C 36.7°F2.6°C 73% 2.0 mph NNW3.2 kmh NNW 6.9 mph11.1 kmh 30.30 in1026.1 mb 0.00 in0.0 mm 0.00 in0.0 mm 0.06 in1.5 mm
01:17 PM 44.8°F7.1°C 36.7°F2.6°C 73% 2.0 mph SE3.2 kmh SE 7.0 mph11.3 kmh 30.30 in1026.1 mb 0.00 in0.0 mm 0.00 in0.0 mm 0.06 in1.5 mm
01:28 PM 44.4°F6.9°C 36.7°F2.6°C 74% 2.0 mph E3.2 kmh E 6.9 mph11.1 kmh 30.29 in1025.7 mb 0.00 in0.0 mm 0.00 in0.0 mm 0.06 in1.5 mm
01:38 PM 44.4°F6.9°C 37.0°F2.8°C 75% 0.9 mph NE1.4 kmh NE 8.1 mph13.0 kmh 30.29 in1025.7 mb 0.00 in0.0 mm 0.00 in0.0 mm 0.06 in1.5 mm
01:48 PM 44.6°F7.0°C 37.2°F2.9°C 75% 0.9 mph WNW1.4 kmh WNW 6.0 mph9.7 kmh 30.29 in1025.7 mb 0.00 in0.0 mm 0.00 in0.0 mm 0.06 in1.5 mm
01:58 PM 44.4°F6.9°C 37.4°F3.0°C 76% 0.9 mph E1.4 kmh E 4.9 mph7.9 kmh 30.29 in1025.7 mb 0.00 in0.0 mm 0.00 in0.0 mm 0.06 in1.5 mm
02:08 PM 44.4°F6.9°C 37.4°F3.0°C 76% 0.9 mph NE1.4 kmh NE 7.0 mph11.3 kmh 30.29 in1025.7 mb 0.00 in0.0 mm 0.00 in0.0 mm 0.06 in1.5 mm
02:18 PM 44.4°F6.9°C 37.0°F2.8°C 75% 2.0 mph N3.2 kmh N 6.9 mph11.1 kmh 30.29 in1025.7 mb 0.00 in0.0 mm 0.00 in0.0 mm 0.06 in1.5 mm
02:28 PM 44.2°F6.8°C 37.2°F2.9°C 76% 0.9 mph NE1.4 kmh NE 6.9 mph11.1 kmh 30.29 in1025.7 mb 0.00 in0.0 mm 0.00 in0.0 mm 0.06 in1.5 mm
02:38 PM 44.2°F6.8°C 37.2°F2.9°C 76% 0.9 mph NE1.4 kmh NE 6.9 mph11.1 kmh 30.29 in1025.7 mb 0.00 in0.0 mm 0.00 in0.0 mm 0.06 in1.5 mm
02:48 PM 44.2°F6.8°C 37.2°F2.9°C 76% 0.9 mph WNW1.4 kmh WNW 2.9 mph4.7 kmh 30.29 in1025.7 mb 0.00 in0.0 mm 0.00 in0.0 mm 0.06 in1.5 mm
02:58 PM 43.9°F6.6°C 36.5°F2.5°C 75% 0.9 mph NE1.4 kmh NE 7.0 mph11.3 kmh 30.29 in1025.7 mb 0.00 in0.0 mm 0.00 in0.0 mm 0.06 in1.5 mm
03:08 PM 43.9°F6.6°C 36.5°F2.5°C 75% Calm Calm 4.0 mph6.4 kmh 30.29 in1025.7 mb 0.00 in0.0 mm 0.00 in0.0 mm 0.06 in1.5 mm
03:18 PM 43.7°F6.5°C 36.3°F2.4°C 75% 0.9 mph N1.4 kmh N 4.0 mph6.4 kmh 30.29 in1025.7 mb 0.00 in0.0 mm 0.00 in0.0 mm 0.06 in1.5 mm
03:28 PM 43.5°F6.4°C 35.4°F1.9°C 73% 0.9 mph NW1.4 kmh NW 4.9 mph7.9 kmh 30.29 in1025.7 mb 0.00 in0.0 mm 0.00 in0.0 mm 0.06 in1.5 mm
03:38 PM 43.3°F6.3°C 35.6°F2.0°C 74% 0.9 mph N1.4 kmh N 6.9 mph11.1 kmh 30.29 in1025.7 mb 0.00 in0.0 mm 0.00 in0.0 mm 0.06 in1.5 mm
03:48 PM 43.2°F6.2°C 35.4°F1.9°C 74% Calm Calm 4.0 mph6.4 kmh 30.30 in1026.1 mb 0.00 in0.0 mm 0.00 in0.0 mm 0.06 in1.5 mm
03:58 PM 43.0°F6.1°C 35.6°F2.0°C 75% Calm Calm 4.0 mph6.4 kmh 30.30 in1026.1 mb 0.00 in0.0 mm 0.00 in0.0 mm 0.06 in1.5 mm
04:08 PM 43.0°F6.1°C 35.6°F2.0°C 75% Calm Calm 0.9 mph1.4 kmh 30.30 in1026.1 mb 0.00 in0.0 mm 0.00 in0.0 mm 0.06 in1.5 mm
04:18 PM 42.6°F5.9°C 34.9°F1.6°C 74% Calm Calm 4.0 mph6.4 kmh 30.30 in1026.1 mb 0.00 in0.0 mm 0.00 in0.0 mm 0.06 in1.5 mm
04:28 PM 42.4°F5.8°C 34.3°F1.3°C 73% Calm Calm 2.9 mph4.7 kmh 30.30 in1026.1 mb 0.00 in0.0 mm 0.00 in0.0 mm 0.06 in1.5 mm
04:38 PM 42.4°F5.8°C 34.3°F1.3°C 73% Calm Calm 2.9 mph4.7 kmh 30.30 in1026.1 mb 0.00 in0.0 mm 0.00 in0.0 mm 0.06 in1.5 mm
04:48 PM 42.3°F5.7°C 34.2°F1.2°C 73% Calm Calm 4.0 mph6.4 kmh 30.30 in1026.1 mb 0.00 in0.0 mm 0.00 in0.0 mm 0.06 in1.5 mm
04:58 PM 42.3°F5.7°C 34.2°F1.2°C 73% Calm Calm 3.0 mph4.8 kmh 30.31 in1026.4 mb 0.00 in0.0 mm 0.00 in0.0 mm 0.06 in1.5 mm
05:08 PM 42.3°F5.7°C 34.5°F1.4°C 74% 0.9 mph SSE1.4 kmh SSE 4.0 mph6.4 kmh 30.31 in1026.4 mb 0.00 in0.0 mm 0.00 in0.0 mm 0.06 in1.5 mm
05:18 PM 42.1°F5.6°C 34.3°F1.3°C 74% Calm Calm 2.9 mph4.7 kmh 30.31 in1026.4 mb 0.00 in0.0 mm 0.00 in0.0 mm 0.06 in1.5 mm
05:28 PM 42.1°F5.6°C 34.7°F1.5°C 75% Calm Calm 2.0 mph3.2 kmh 30.30 in1026.1 mb 0.00 in0.0 mm 0.00 in0.0 mm 0.06 in1.5 mm
05:38 PM 41.9°F5.5°C 34.5°F1.4°C 75% Calm Calm 0.9 mph1.4 kmh 30.30 in1026.1 mb 0.00 in0.0 mm 0.00 in0.0 mm 0.06 in1.5 mm
05:48 PM 41.9°F5.5°C 34.5°F1.4°C 75% Calm Calm 3.0 mph4.8 kmh 30.30 in1026.1 mb 0.00 in0.0 mm 0.00 in0.0 mm 0.06 in1.5 mm
05:58 PM 41.9°F5.5°C 34.5°F1.4°C 75% Calm Calm 0.9 mph1.4 kmh 30.30 in1026.1 mb 0.00 in0.0 mm 0.00 in0.0 mm 0.06 in1.5 mm
06:08 PM 42.1°F5.6°C 34.7°F1.5°C 75% Calm Calm 0.9 mph1.4 kmh 30.30 in1026.1 mb 0.00 in0.0 mm 0.00 in0.0 mm 0.06 in1.5 mm
06:18 PM 42.1°F5.6°C 35.4°F1.9°C 77% Calm Calm 0.9 mph1.4 kmh 30.30 in1026.1 mb 0.00 in0.0 mm 0.00 in0.0 mm 0.06 in1.5 mm
06:28 PM 41.9°F5.5°C 34.9°F1.6°C 76% Calm Calm 3.0 mph4.8 kmh 30.30 in1026.1 mb 0.00 in0.0 mm 0.00 in0.0 mm 0.06 in1.5 mm
06:38 PM 41.9°F5.5°C 34.9°F1.6°C 76% Calm Calm 0.9 mph1.4 kmh 30.30 in1026.1 mb 0.00 in0.0 mm 0.00 in0.0 mm 0.06 in1.5 mm
06:48 PM 41.9°F5.5°C 34.9°F1.6°C 76% Calm Calm 0.9 mph1.4 kmh 30.30 in1026.1 mb 0.00 in0.0 mm 0.00 in0.0 mm 0.06 in1.5 mm
06:58 PM 41.7°F5.4°C 35.4°F1.9°C 78% Calm Calm 0.9 mph1.4 kmh 30.30 in1026.1 mb 0.00 in0.0 mm 0.00 in0.0 mm 0.06 in1.5 mm
07:08 PM 41.7°F5.4°C 35.1°F1.7°C 77% Calm Calm 2.0 mph3.2 kmh 30.30 in1026.1 mb 0.00 in0.0 mm 0.00 in0.0 mm 0.06 in1.5 mm
07:18 PM 41.9°F5.5°C 35.8°F2.1°C 79% Calm Calm 1.0 mph1.6 kmh 30.30 in1026.1 mb 0.00 in0.0 mm 0.00 in0.0 mm 0.06 in1.5 mm
07:28 PM 41.7°F5.4°C 35.8°F2.1°C 79% Calm Calm 0.9 mph1.4 kmh 30.30 in1026.1 mb 0.00 in0.0 mm 0.00 in0.0 mm 0.06 in1.5 mm
07:38 PM 41.5°F5.3°C 35.2°F1.8°C 78% Calm Calm -- 30.30 in1026.1 mb 0.00 in0.0 mm 0.00 in0.0 mm 0.06 in1.5 mm
07:48 PM 41.5°F5.3°C 35.6°F2.0°C 79% Calm Calm 1.0 mph1.6 kmh 30.30 in1026.1 mb 0.00 in0.0 mm 0.00 in0.0 mm 0.06 in1.5 mm
07:58 PM 41.7°F5.4°C 35.8°F2.1°C 79% Calm Calm -- 30.30 in1026.1 mb 0.00 in0.0 mm 0.00 in0.0 mm 0.06 in1.5 mm
08:08 PM 41.5°F5.3°C 35.6°F2.0°C 79% Calm Calm 2.0 mph3.2 kmh 30.30 in1026.1 mb 0.00 in0.0 mm 0.00 in0.0 mm 0.06 in1.5 mm
08:18 PM 41.5°F5.3°C 35.8°F2.1°C 80% Calm Calm -- 30.30 in1026.1 mb 0.00 in0.0 mm 0.00 in0.0 mm 0.06 in1.5 mm
08:28 PM 41.5°F5.3°C 35.6°F2.0°C 79% Calm Calm 2.0 mph3.2 kmh 30.30 in1026.1 mb 0.00 in0.0 mm 0.00 in0.0 mm 0.06 in1.5 mm
08:38 PM 41.7°F5.4°C 35.8°F2.1°C 79% Calm Calm 0.9 mph1.4 kmh 30.30 in1026.1 mb 0.00 in0.0 mm 0.00 in0.0 mm 0.06 in1.5 mm
08:48 PM 41.7°F5.4°C 35.4°F1.9°C 78% Calm Calm 1.0 mph1.6 kmh 30.30 in1026.1 mb 0.00 in0.0 mm 0.00 in0.0 mm 0.06 in1.5 mm
08:58 PM 41.9°F5.5°C 35.2°F1.8°C 77% Calm Calm 2.0 mph3.2 kmh 30.31 in1026.4 mb 0.00 in0.0 mm 0.00 in0.0 mm 0.06 in1.5 mm
09:08 PM 42.1°F5.6°C 35.8°F2.1°C 78% Calm Calm 1.0 mph1.6 kmh 30.30 in1026.1 mb 0.00 in0.0 mm 0.00 in0.0 mm 0.06 in1.5 mm
09:18 PM 42.1°F5.6°C 35.1°F1.7°C 76% Calm Calm 0.9 mph1.4 kmh 30.30 in1026.1 mb 0.00 in0.0 mm 0.00 in0.0 mm 0.06 in1.5 mm
09:28 PM 41.9°F5.5°C 35.2°F1.8°C 77% Calm Calm 2.9 mph4.7 kmh 30.30 in1026.1 mb 0.00 in0.0 mm 0.00 in0.0 mm 0.06 in1.5 mm
09:38 PM 41.4°F5.2°C 34.7°F1.5°C 77% Calm Calm 4.0 mph6.4 kmh 30.30 in1026.1 mb 0.00 in0.0 mm 0.00 in0.0 mm 0.06 in1.5 mm
09:48 PM 41.2°F5.1°C 34.9°F1.6°C 78% 0.9 mph W1.4 kmh W 6.0 mph9.7 kmh 30.31 in1026.4 mb 0.00 in0.0 mm 0.00 in0.0 mm 0.06 in1.5 mm
09:58 PM 41.0°F5.0°C 34.7°F1.5°C 78% Calm Calm 2.9 mph4.7 kmh 30.30 in1026.1 mb 0.00 in0.0 mm 0.00 in0.0 mm 0.06 in1.5 mm
10:08 PM 40.8°F4.9°C 34.5°F1.4°C 78% Calm Calm 4.0 mph6.4 kmh 30.30 in1026.1 mb 0.00 in0.0 mm 0.00 in0.0 mm 0.06 in1.5 mm
10:18 PM 40.6°F4.8°C 34.7°F1.5°C 79% Calm Calm 0.9 mph1.4 kmh 30.30 in1026.1 mb 0.00 in0.0 mm 0.00 in0.0 mm 0.06 in1.5 mm
10:28 PM 40.6°F4.8°C 34.7°F1.5°C 79% Calm Calm 0.9 mph1.4 kmh 30.30 in1026.1 mb 0.00 in0.0 mm 0.00 in0.0 mm 0.06 in1.5 mm
10:38 PM 40.6°F4.8°C 34.7°F1.5°C 79% Calm Calm 0.9 mph1.4 kmh 30.29 in1025.7 mb 0.00 in0.0 mm 0.00 in0.0 mm 0.06 in1.5 mm
10:48 PM 40.5°F4.7°C 34.7°F1.5°C 80% Calm Calm 1.0 mph1.6 kmh 30.29 in1025.7 mb 0.00 in0.0 mm 0.00 in0.0 mm 0.06 in1.5 mm
10:58 PM 40.5°F4.7°C 34.7°F1.5°C 80% Calm Calm 3.0 mph4.8 kmh 30.29 in1025.7 mb 0.00 in0.0 mm 0.00 in0.0 mm 0.06 in1.5 mm
11:08 PM 40.5°F4.7°C 35.1°F1.7°C 81% Calm Calm 0.9 mph1.4 kmh 30.30 in1026.1 mb 0.00 in0.0 mm 0.00 in0.0 mm 0.06 in1.5 mm
11:18 PM 40.5°F4.7°C 35.1°F1.7°C 81% Calm Calm 3.0 mph4.8 kmh 30.30 in1026.1 mb 0.00 in0.0 mm 0.00 in0.0 mm 0.06 in1.5 mm
11:28 PM 40.5°F4.7°C 35.1°F1.7°C 81% Calm Calm 2.0 mph3.2 kmh 30.30 in1026.1 mb 0.00 in0.0 mm 0.00 in0.0 mm 0.06 in1.5 mm
11:38 PM 40.3°F4.6°C 34.9°F1.6°C 81% Calm Calm 3.0 mph4.8 kmh 30.30 in1026.1 mb 0.00 in0.0 mm 0.00 in0.0 mm 0.06 in1.5 mm
11:48 PM 40.3°F4.6°C 34.9°F1.6°C 81% Calm Calm 0.9 mph1.4 kmh 30.30 in1026.1 mb 0.00 in0.0 mm 0.00 in0.0 mm 0.06 in1.5 mm
11:58 PM 40.3°F4.6°C 35.2°F1.8°C 82% Calm Calm 0.9 mph1.4 kmh 30.29 in1025.7 mb 0.00 in0.0 mm 0.00 in0.0 mm 0.06 in1.5 mm